Time;durP1;ratioP1;P1;durP2;ratioP2;P2;SDS_P1;SDS_P2;PMS_P1;PMS_P2;Temp;Humidity;BMP_temperature;BMP_pressure;BME280_temperature;BME280_humidity;BME280_pressure;Samples;Min_cycle;Max_cycle;Signal;HPM_P1;HPM_P2
2021/09/28 00:00:58;;;;;;;;;3.00;2.75;;;;;21.57;44.72;101814.50;5079318;27;46704;-56
2021/09/28 00:03:23;;;;;;;;;4.75;2.50;;;;;21.57;44.85;101809.22;5079457;27;45426;-54
2021/09/28 00:05:48;;;;;;;;;3.00;3.00;;;;;21.57;44.82;101813.66;5095284;27;45338;-56
2021/09/28 00:08:15;;;;;;;;;7.00;4.00;;;;;21.56;44.74;101828.59;5079726;27;45361;-56
2021/09/28 00:10:41;;;;;;;;;3.00;3.00;;;;;21.55;45.12;101816.34;5079271;27;47494;-54
2021/09/28 00:13:07;;;;;;;;;2.00;1.50;;;;;21.55;44.86;101829.53;5079346;27;45440;-56
2021/09/28 00:15:33;;;;;;;;;4.50;4.50;;;;;21.55;44.96;101834.78;5079547;27;45290;-55
2021/09/28 00:17:58;;;;;;;;;4.50;3.25;;;;;21.53;44.84;101839.31;5079608;27;45263;-56
2021/09/28 00:20:24;;;;;;;;;4.00;4.00;;;;;21.54;44.73;101841.03;5079062;27;46148;-55
2021/09/28 00:22:53;;;;;;;;;2.50;2.50;;;;;21.53;44.76;101831.41;5079161;27;45358;-54
2021/09/28 00:25:20;;;;;;;;;3.75;2.75;;;;;21.52;45.00;101837.59;5079232;27;45471;-57
2021/09/28 00:27:45;;;;;;;;;4.00;4.00;;;;;21.52;45.04;101842.88;5079342;27;45464;-54
2021/09/28 00:30:11;;;;;;;;;4.00;3.50;;;;;21.53;44.74;101843.72;5079111;27;45470;-56
2021/09/28 00:32:37;;;;;;;;;2.25;2.25;;;;;21.53;44.60;101847.22;5094892;27;45394;-57
2021/09/28 00:35:02;;;;;;;;;3.50;3.00;;;;;21.51;44.92;101846.44;5079471;27;45495;-53
2021/09/28 00:37:28;;;;;;;;;3.00;3.00;;;;;21.53;45.05;101851.63;5079197;28;45256;-54
2021/09/28 00:39:53;;;;;;;;;3.50;3.00;;;;;21.51;44.37;101856.97;5078886;27;46305;-55
2021/09/28 00:42:19;;;;;;;;;3.00;3.00;;;;;21.51;45.07;101851.69;5094495;27;46285;-56
2021/09/28 00:44:45;;;;;;;;;3.50;3.00;;;;;21.51;44.84;101851.69;5078303;27;45374;-54
2021/09/28 00:47:12;;;;;;;;;3.00;3.00;;;;;21.52;44.91;101857.81;5079128;27;45326;-54
2021/09/28 00:49:45;;;;;;;;;5.50;3.00;;;;;21.52;44.69;101849.91;5078618;27;46612;-55
2021/09/28 00:52:12;;;;;;;;;3.00;3.00;;;;;21.52;44.48;101848.16;5078874;27;45266;-53
2021/09/28 00:54:38;;;;;;;;;2.75;2.75;;;;;21.51;44.84;101849.06;5078792;27;45468;-55
2021/09/28 00:57:08;;;;;;;;;2.00;2.00;;;;;21.51;45.09;101843.78;5079282;27;45318;-56
2021/09/28 00:59:39;;;;;;;;;4.25;4.25;;;;;21.50;44.98;101838.59;5078745;27;45510;-56
2021/09/28 01:02:06;;;;;;;;;2.25;2.25;;;;;21.49;44.73;101840.34;5078903;28;45362;-55
2021/09/28 01:04:31;;;;;;;;;3.00;3.00;;;;;21.48;44.94;101838.63;5078756;27;45485;-59
2021/09/28 01:07:02;;;;;;;;;3.00;3.00;;;;;21.47;44.96;101839.56;5078707;27;45483;-54
2021/09/28 01:09:28;;;;;;;;;3.00;3.00;;;;;21.47;44.78;101842.19;5078469;27;46581;-57
2021/09/28 01:11:54;;;;;;;;;5.00;3.25;;;;;21.45;45.02;101837.00;5078363;27;45448;-59
2021/09/28 01:14:20;;;;;;;;;4.25;3.00;;;;;21.44;44.81;101840.56;5078456;28;45441;-54
2021/09/28 01:16:45;;;;;;;;;4.75;2.25;;;;;21.45;45.20;101841.41;5078596;27;45565;-59
2021/09/28 01:19:10;;;;;;;;;3.50;3.00;;;;;21.46;44.98;101843.13;5076776;28;47858;-56
2021/09/28 01:21:36;;;;;;;;;3.25;3.25;;;;;21.46;44.99;101837.84;5078572;27;45359;-58
2021/09/28 01:24:02;;;;;;;;;5.00;2.00;;;;;21.43;44.54;101833.56;5078275;27;45343;-56
2021/09/28 01:26:28;;;;;;;;;4.00;2.75;;;;;21.43;44.90;101830.09;5078394;27;45323;-59
2021/09/28 01:28:55;;;;;;;;;4.00;4.00;;;;;21.42;45.14;101825.72;5078219;27;46493;-57
2021/09/28 01:31:23;;;;;;;;;2.75;2.00;;;;;21.41;44.94;101824.84;5078115;27;45771;-58
2021/09/28 01:33:48;;;;;;;;;3.00;3.00;;;;;21.42;45.25;101836.28;5078207;28;45296;-56
2021/09/28 01:36:13;;;;;;;;;4.25;3.00;;;;;21.41;44.96;101837.22;5078381;27;45354;-57
2021/09/28 01:38:39;;;;;;;;;3.50;3.00;;;;;21.39;45.03;101834.63;5078080;27;45321;-56
2021/09/28 01:41:05;;;;;;;;;3.00;3.00;;;;;21.39;45.08;101833.78;5078143;27;45394;-56
2021/09/28 01:43:30;;;;;;;;;2.75;2.75;;;;;21.38;44.83;101829.41;5078023;27;45352;-57
2021/09/28 01:45:58;;;;;;;;;3.00;3.00;;;;;21.38;45.12;101821.50;5078022;27;45464;-55
2021/09/28 01:48:29;;;;;;;;;4.50;3.25;;;;;21.38;45.09;101821.50;5076542;28;48137;-54
2021/09/28 01:50:54;;;;;;;;;2.50;2.50;;;;;21.38;44.96;101818.88;5092990;27;45289;-54
2021/09/28 01:53:19;;;;;;;;;4.00;4.00;;;;;21.38;45.10;101816.22;5077978;27;45353;-56
2021/09/28 01:55:45;;;;;;;;;2.75;2.75;;;;;21.37;45.06;101815.38;5076998;27;45338;-55
2021/09/28 01:58:10;;;;;;;;;4.25;3.00;;;;;21.37;45.08;101817.16;5077660;27;46421;-53
2021/09/28 02:00:35;;;;;;;;;2.75;2.75;;;;;21.38;44.89;101819.75;5077907;27;45489;-56
2021/09/28 02:03:01;;;;;;;;;4.00;2.50;;;;;21.37;44.99;101806.59;5077790;27;45430;-55
2021/09/28 02:05:26;;;;;;;;;4.00;3.00;;;;;21.37;45.13;101803.97;5077656;28;45273;-53
2021/09/28 02:07:52;;;;;;;;;4.00;2.50;;;;;21.37;44.85;101811.88;5077504;27;45418;-56
2021/09/28 02:10:17;;;;;;;;;3.00;3.00;;;;;21.36;45.13;101799.63;5077377;27;45471;-55
2021/09/28 02:12:43;;;;;;;;;2.00;2.00;;;;;21.36;44.84;101802.25;5077546;28;45304;-57
2021/09/28 02:15:09;;;;;;;;;3.75;3.75;;;;;21.35;44.72;101800.53;5078030;28;45335;-57
2021/09/28 02:17:34;;;;;;;;;4.00;3.00;;;;;21.34;45.01;101791.78;5077239;27;47072;-56
2021/09/28 02:20:00;;;;;;;;;4.00;3.00;;;;;21.35;44.90;101793.50;5077398;27;45270;-53
2021/09/28 02:22:25;;;;;;;;;3.50;3.50;;;;;21.34;44.85;101791.78;5077521;27;45481;-59
2021/09/28 02:24:50;;;;;;;;;2.50;2.50;;;;;21.34;45.21;101788.25;5077529;27;45164;-57
2021/09/28 02:27:16;;;;;;;;;3.00;1.75;;;;;21.34;45.13;101797.06;5077157;27;46534;-57
2021/09/28 02:29:42;;;;;;;;;3.00;3.00;;;;;21.33;44.94;101790.06;5077234;27;45768;-55
2021/09/28 02:32:08;;;;;;;;;3.00;3.00;;;;;21.33;45.02;101783.94;5077634;27;45196;-56
2021/09/28 02:34:35;;;;;;;;;5.50;3.00;;;;;21.33;45.08;101784.78;5077520;27;45505;-55
2021/09/28 02:37:03;;;;;;;;;2.75;2.75;;;;;21.33;44.95;101789.22;5076898;27;46135;-52
2021/09/28 02:39:28;;;;;;;;;4.00;3.00;;;;;21.30;45.09;101785.78;5077176;27;45275;-54
2021/09/28 02:41:54;;;;;;;;;2.00;2.00;;;;;21.31;45.00;101787.50;5077164;27;45276;-56
2021/09/28 02:44:19;;;;;;;;;4.00;2.25;;;;;21.33;45.11;101791.84;5077347;27;46031;-55
2021/09/28 02:46:45;;;;;;;;;3.25;3.00;;;;;21.30;45.26;101777.88;5076867;27;45971;-56
2021/09/28 02:49:10;;;;;;;;;1.75;1.75;;;;;21.31;44.95;101776.09;5077282;27;45276;-55
2021/09/28 02:51:35;;;;;;;;;2.00;2.00;;;;;21.33;44.86;101762.84;5076950;27;45285;-57
2021/09/28 02:54:01;;;;;;;;;4.75;3.00;;;;;21.30;45.08;101758.53;5077116;27;45564;-56
2021/09/28 02:56:26;;;;;;;;;3.00;3.00;;;;;21.31;44.92;101765.53;5076669;27;46600;-56
2021/09/28 02:58:51;;;;;;;;;3.00;3.00;;;;;21.30;45.13;101772.59;5076870;27;45311;-56
2021/09/28 03:01:17;;;;;;;;;2.00;2.00;;;;;21.30;45.37;101764.69;5092390;27;45347;-56
2021/09/28 03:03:42;;;;;;;;;3.00;3.00;;;;;21.31;44.85;101766.41;5077391;27;45569;-56
2021/09/28 03:06:07;;;;;;;;;2.00;2.00;;;;;21.30;45.03;101766.47;5076105;27;46308;-56
2021/09/28 03:08:33;;;;;;;;;2.75;2.75;;;;;21.30;44.93;101763.81;5076682;27;45441;-55
2021/09/28 03:10:59;;;;;;;;;3.00;2.25;;;;;21.30;44.95;101762.06;5076728;27;45453;-56
2021/09/28 03:13:24;;;;;;;;;2.00;2.00;;;;;21.29;45.09;101762.09;5076975;27;45318;-54
2021/09/28 03:15:49;;;;;;;;;5.50;4.00;;;;;21.29;45.16;101762.97;5076394;27;45385;-55
2021/09/28 03:18:15;;;;;;;;;2.25;2.25;;;;;21.29;45.09;101770.88;5076717;27;45417;-56
2021/09/28 03:20:40;;;;;;;;;4.00;4.00;;;;;21.26;45.32;101762.25;5077012;27;45355;-58
2021/09/28 03:23:06;;;;;;;;;4.00;3.25;;;;;21.29;45.01;101767.38;5076850;27;45721;-58
2021/09/28 03:25:32;;;;;;;;;3.00;3.00;;;;;21.28;45.10;101768.28;5076287;27;46588;-57
2021/09/28 03:27:58;;;;;;;;;2.00;2.00;;;;;21.27;44.94;101770.09;5076365;27;45264;-57
2021/09/28 03:30:23;;;;;;;;;4.00;4.00;;;;;21.28;45.04;101768.28;5076604;27;45346;-56
2021/09/28 03:32:49;;;;;;;;;4.25;3.00;;;;;21.26;45.17;101767.53;5092390;27;45349;-55
2021/09/28 03:35:14;;;;;;;;;4.75;3.00;;;;;21.26;45.60;101762.25;5076491;27;47136;-55
2021/09/28 03:37:44;;;;;;;;;5.00;3.50;;;;;21.25;45.23;101761.38;5076564;28;45319;-55
2021/09/28 03:40:11;;;;;;;;;4.00;2.00;;;;;21.27;45.19;101763.97;5076785;27;45748;-56
2021/09/28 03:42:37;;;;;;;;;4.00;4.00;;;;;21.26;45.28;101760.47;5076531;27;45419;-57
2021/09/28 03:45:04;;;;;;;;;5.50;4.75;;;;;21.25;45.30;101764.03;5076211;27;45367;-58
2021/09/28 03:47:29;;;;;;;;;3.00;3.00;;;;;21.26;45.42;101759.63;5076015;27;45806;-58
2021/09/28 03:49:55;;;;;;;;;4.00;4.00;;;;;21.22;45.35;101750.13;5076265;27;45330;-58
2021/09/28 03:52:20;;;;;;;;;3.75;3.75;;;;;21.24;45.03;101754.41;5076417;27;45370;-54
2021/09/28 03:54:45;;;;;;;;;4.00;4.00;;;;;21.23;45.44;101750.03;5076347;27;46713;-54
2021/09/28 03:57:11;;;;;;;;;3.00;3.00;;;;;21.25;45.44;101744.72;5092096;27;45457;-59
2021/09/28 03:59:36;;;;;;;;;3.00;3.00;;;;;21.24;45.43;101754.41;5076066;27;45282;-57
2021/09/28 04:02:02;;;;;;;;;5.50;4.00;;;;;21.23;45.58;101744.78;5076313;27;45342;-56
2021/09/28 04:04:27;;;;;;;;;4.00;4.00;;;;;21.21;45.39;101749.28;5075904;27;45655;-58
2021/09/28 04:06:52;;;;;;;;;4.00;4.00;;;;;21.22;45.17;101750.97;5075944;27;45506;-56
2021/09/28 04:09:18;;;;;;;;;4.00;3.50;;;;;21.21;45.53;101762.47;5076229;27;45365;-55
2021/09/28 04:11:44;;;;;;;;;3.00;3.00;;;;;21.20;45.39;101755.47;5076578;27;45256;-58
2021/09/28 04:14:11;;;;;;;;;4.50;3.00;;;;;21.19;45.34;101761.66;5075802;27;46519;-55
2021/09/28 04:16:36;;;;;;;;;2.00;2.00;;;;;21.18;45.31;101765.22;5075743;27;45282;-56
2021/09/28 04:19:03;;;;;;;;;5.00;2.75;;;;;21.15;45.55;101766.22;5077644;28;45334;-56
2021/09/28 04:21:28;;;;;;;;;6.50;4.00;;;;;21.14;45.24;101768.91;5079483;27;45318;-55
2021/09/28 04:23:54;;;;;;;;;5.25;5.00;;;;;21.13;45.24;101761.91;5079213;27;46640;-57
2021/09/28 04:26:20;;;;;;;;;4.75;4.00;;;;;21.14;45.80;101763.63;5079033;28;45478;-55
2021/09/28 04:28:45;;;;;;;;;6.00;4.00;;;;;21.13;45.12;101767.19;5079620;27;45387;-55
2021/09/28 04:31:14;;;;;;;;;4.00;4.00;;;;;21.13;45.38;101760.16;5079439;27;45428;-56
2021/09/28 04:33:39;;;;;;;;;3.00;3.00;;;;;21.14;45.43;101764.50;5078929;27;46358;-56
2021/09/28 04:36:05;;;;;;;;;3.00;3.00;;;;;21.12;45.20;101765.47;5078980;27;45378;-57
2021/09/28 04:38:30;;;;;;;;;5.00;3.00;;;;;21.12;45.45;101770.75;5077761;28;45323;-55
2021/09/28 04:40:56;;;;;;;;;5.75;4.00;;;;;21.09;45.53;101771.75;5079288;27;45344;-56
2021/09/28 04:43:21;;;;;;;;;3.50;3.50;;;;;21.08;45.35;101759.47;5078910;27;46245;-56
2021/09/28 04:45:46;;;;;;;;;6.25;5.00;;;;;21.08;45.69;101756.00;5078985;28;45347;-58
2021/09/28 04:48:11;;;;;;;;;4.25;4.25;;;;;21.08;45.70;101753.38;5079005;27;45385;-58
2021/09/28 04:50:37;;;;;;;;;4.50;3.00;;;;;21.06;45.68;101760.47;5079026;27;45539;-58
2021/09/28 04:53:02;;;;;;;;;4.50;4.00;;;;;21.07;45.13;101754.28;5078621;27;45487;-56
2021/09/28 04:55:28;;;;;;;;;3.00;3.00;;;;;21.07;45.07;101768.31;5078525;27;45389;-56
2021/09/28 04:57:54;;;;;;;;;3.00;3.00;;;;;21.07;45.24;101768.31;5078791;27;45473;-57
2021/09/28 05:00:19;;;;;;;;;3.75;3.75;;;;;21.07;45.24;101772.75;5078770;28;45519;-54
2021/09/28 05:02:45;;;;;;;;;3.00;3.00;;;;;21.06;45.41;101765.75;5078774;27;45375;-55
2021/09/28 05:05:10;;;;;;;;;5.75;4.00;;;;;21.06;45.10;101768.38;5078445;27;45242;-57
2021/09/28 05:07:36;;;;;;;;;5.50;4.00;;;;;21.05;44.98;101766.66;5078498;27;45276;-56
2021/09/28 05:10:02;;;;;;;;;4.00;3.00;;;;;21.05;45.18;101770.19;5078475;27;45271;-53
2021/09/28 05:12:28;;;;;;;;;4.25;3.25;;;;;21.06;45.18;101765.75;5078499;27;46520;-55
2021/09/28 05:14:56;;;;;;;;;4.25;4.25;;;;;21.07;45.37;101762.19;5078357;27;45339;-53
2021/09/28 05:17:21;;;;;;;;;3.75;3.75;;;;;21.07;45.47;101772.75;5078353;27;45276;-57
2021/09/28 05:19:46;;;;;;;;;3.00;3.00;;;;;21.05;44.98;101778.09;5078881;27;45263;-55
2021/09/28 05:22:12;;;;;;;;;4.00;3.00;;;;;21.06;45.21;101779.78;5078217;27;46261;-56
2021/09/28 05:24:37;;;;;;;;;5.00;3.00;;;;;21.05;45.04;101770.19;5078041;27;45449;-55
2021/09/28 05:27:03;;;;;;;;;5.50;3.00;;;;;21.07;44.92;101772.75;5078112;27;45245;-56
2021/09/28 05:29:28;;;;;;;;;4.75;3.00;;;;;21.06;44.93;101781.56;5078198;27;45351;-57
2021/09/28 05:31:53;;;;;;;;;1.25;1.25;;;;;21.06;45.00;101776.28;5078004;27;45329;-57
2021/09/28 05:34:19;;;;;;;;;3.00;3.00;;;;;21.07;45.16;101775.38;5094074;27;45405;-55
2021/09/28 05:36:44;;;;;;;;;4.25;2.75;;;;;21.07;45.08;101776.22;5078115;27;45337;-57
2021/09/28 05:39:10;;;;;;;;;4.25;3.00;;;;;21.05;44.99;101758.75;5078292;27;45258;-57
2021/09/28 05:41:35;;;;;;;;;5.75;2.75;;;;;21.06;44.87;101753.41;5077681;27;46803;-55
2021/09/28 05:44:00;;;;;;;;;3.50;3.00;;;;;21.07;45.08;101746.38;5077710;27;45162;-57
2021/09/28 05:46:25;;;;;;;;;4.25;2.25;;;;;21.05;45.22;101740.31;5077971;27;45244;-54
2021/09/28 05:48:51;;;;;;;;;3.50;3.50;;;;;21.06;44.95;101739.41;5078427;27;45166;-56
2021/09/28 05:51:19;;;;;;;;;5.00;4.00;;;;;21.06;45.07;101734.97;5077929;27;45448;-57
2021/09/28 05:53:45;;;;;;;;;3.00;3.00;;;;;21.05;44.85;101733.28;5093512;27;45840;-57
2021/09/28 05:56:12;;;;;;;;;4.25;3.00;;;;;21.06;44.61;101728.84;5077841;27;45492;-57
2021/09/28 05:58:38;;;;;;;;;4.50;3.25;;;;;21.05;44.61;101737.69;5078029;27;45342;-55
2021/09/28 06:01:03;;;;;;;;;2.75;2.00;;;;;21.04;45.21;101739.47;5077464;27;45369;-56
2021/09/28 06:03:29;;;;;;;;;3.00;3.00;;;;;21.04;44.77;101739.47;5077569;28;45268;-55
2021/09/28 06:05:54;;;;;;;;;4.50;2.00;;;;;21.05;45.11;101745.59;5077686;27;45229;-57
2021/09/28 06:08:19;;;;;;;;;2.25;2.25;;;;;21.03;44.58;101747.41;5078147;27;45582;-56
2021/09/28 06:10:45;;;;;;;;;1.75;1.75;;;;;21.03;45.11;101748.28;5077480;27;46210;-56
2021/09/28 06:13:10;;;;;;;;;2.75;1.25;;;;;21.03;44.72;101748.28;5077452;27;45276;-56
2021/09/28 06:15:35;;;;;;;;;2.00;2.00;;;;;21.01;44.54;101743.06;5077642;27;45435;-55
2021/09/28 06:18:01;;;;;;;;;4.50;4.00;;;;;21.00;44.61;101746.63;5077680;27;45267;-56
2021/09/28 06:20:26;;;;;;;;;3.25;3.25;;;;;21.01;44.50;101758.88;5077288;27;45267;-56
2021/09/28 06:22:51;;;;;;;;;3.25;3.00;;;;;21.01;45.21;101755.41;5077519;27;45401;-53
2021/09/28 06:25:17;;;;;;;;;3.00;3.00;;;;;20.98;44.85;101752.91;5077337;27;45256;-56
2021/09/28 06:27:42;;;;;;;;;3.00;3.00;;;;;20.99;44.65;101755.50;5077597;27;45606;-56
2021/09/28 06:30:08;;;;;;;;;3.25;3.25;;;;;21.00;44.70;101751.06;5093110;27;47960;-61
2021/09/28 06:32:33;;;;;;;;;3.00;3.00;;;;;20.98;44.68;101759.03;5077438;27;45395;-56
2021/09/28 06:34:59;;;;;;;;;4.75;4.25;;;;;21.00;45.08;101758.97;5077358;27;45809;-55
2021/09/28 06:37:24;;;;;;;;;6.00;4.00;;;;;20.99;44.87;101768.66;5077451;27;45314;-56
2021/09/28 06:39:50;;;;;;;;;4.25;4.25;;;;;21.00;45.01;101761.59;5077351;27;46627;-57
2021/09/28 06:42:15;;;;;;;;;3.75;3.75;;;;;21.01;44.71;101758.88;5076272;27;45252;-56
2021/09/28 06:44:41;;;;;;;;;2.75;2.75;;;;;21.00;44.93;101757.16;5077268;27;45441;-57
2021/09/28 06:47:06;;;;;;;;;5.25;5.25;;;;;21.00;45.06;101767.72;5077186;27;45315;-56
2021/09/28 06:49:32;;;;;;;;;4.25;4.25;;;;;20.99;44.81;101759.88;5076813;27;45515;-58
2021/09/28 06:52:00;;;;;;;;;5.00;3.50;;;;;21.00;44.52;101759.81;5076739;27;45449;-56
2021/09/28 06:54:26;;;;;;;;;3.25;3.25;;;;;21.00;44.71;101759.81;5076977;27;45308;-55
2021/09/28 06:56:51;;;;;;;;;6.00;4.25;;;;;21.01;44.47;101763.31;5077253;27;45649;-53
2021/09/28 06:59:18;;;;;;;;;6.00;5.00;;;;;21.00;44.73;101757.16;5076453;27;46460;-54
2021/09/28 07:01:44;;;;;;;;;5.00;5.00;;;;;21.00;44.59;101754.53;5076602;27;45422;-56
2021/09/28 07:04:09;;;;;;;;;3.00;3.00;;;;;21.00;44.80;101744.00;5076849;27;45379;-56
2021/09/28 07:06:34;;;;;;;;;5.00;5.00;;;;;20.99;44.40;101752.84;5092522;27;45219;-56
2021/09/28 07:09:01;;;;;;;;;3.25;3.00;;;;;20.99;44.63;101744.94;5076454;27;46280;-57
2021/09/28 07:11:27;;;;;;;;;4.50;4.00;;;;;21.01;44.77;101740.44;5076728;27;45788;-54
2021/09/28 07:13:53;;;;;;;;;5.00;4.50;;;;;21.00;44.61;101741.34;5076936;27;45532;-53
2021/09/28 07:16:18;;;;;;;;;4.00;3.00;;;;;21.03;44.28;101747.41;5076927;27;45552;-54
2021/09/28 07:18:44;;;;;;;;;9.00;5.50;;;;;20.99;44.74;101739.66;5076367;27;45620;-56
2021/09/28 07:21:10;;;;;;;;;5.50;4.75;;;;;21.01;44.70;101743.06;5076407;28;45398;-56
2021/09/28 07:23:36;;;;;;;;;3.75;3.00;;;;;21.03;44.51;101742.16;5076723;27;45232;-53
2021/09/28 07:26:01;;;;;;;;;3.75;3.00;;;;;21.03;44.75;101743.03;5076715;27;45322;-56
2021/09/28 07:28:27;;;;;;;;;3.50;3.25;;;;;21.04;44.30;101739.47;5076633;28;46121;-56
2021/09/28 07:30:53;;;;;;;;;5.50;4.00;;;;;21.06;44.47;101739.41;5076774;28;45331;-57
2021/09/28 07:33:18;;;;;;;;;4.50;4.00;;;;;21.05;44.26;101735.03;5076617;27;45377;-57
2021/09/28 07:35:44;;;;;;;;;4.50;4.00;;;;;21.06;44.31;101739.41;5076516;27;45600;-55
2021/09/28 07:38:14;;;;;;;;;3.25;3.25;;;;;21.07;44.34;101741.09;5074823;28;47344;-56
2021/09/28 07:40:42;;;;;;;;;5.00;4.75;;;;;21.07;44.44;101746.38;5076133;27;45883;-55
2021/09/28 07:43:07;;;;;;;;;5.25;4.50;;;;;21.07;44.28;101741.09;5076498;27;45227;-54
2021/09/28 07:45:33;;;;;;;;;4.25;4.25;;;;;21.07;44.29;101741.94;5076408;27;45322;-55
2021/09/28 07:47:59;;;;;;;;;5.75;4.00;;;;;21.06;44.13;101737.59;5076091;27;46312;-54
2021/09/28 07:50:24;;;;;;;;;5.00;5.00;;;;;21.07;44.21;101739.31;5076302;27;45329;-56
2021/09/28 07:52:50;;;;;;;;;6.25;5.00;;;;;21.07;44.20;101741.09;5077699;27;45432;-56
2021/09/28 07:55:15;;;;;;;;;7.25;4.00;;;;;21.04;44.34;101741.22;5080022;27;45325;-56
2021/09/28 07:57:41;;;;;;;;;6.00;5.00;;;;;21.05;44.49;101740.31;5079623;28;45437;-56
2021/09/28 08:00:08;;;;;;;;;7.25;4.00;;;;;21.06;44.33;101744.66;5079564;28;45342;-54
2021/09/28 08:02:35;;;;;;;;;4.50;4.00;;;;;21.03;44.55;101742.16;5079787;27;45311;-56
2021/09/28 08:05:01;;;;;;;;;3.00;3.00;;;;;21.01;44.47;101737.81;5079803;27;45349;-57
2021/09/28 08:07:26;;;;;;;;;5.75;4.00;;;;;21.03;43.97;101743.03;5079651;27;46116;-56
2021/09/28 08:09:52;;;;;;;;;3.25;3.00;;;;;21.04;44.34;101739.47;5079524;27;45247;-55
2021/09/28 08:12:17;;;;;;;;;5.75;4.75;;;;;21.03;44.52;101732.47;5079550;27;45442;-56
2021/09/28 08:14:43;;;;;;;;;4.00;4.00;;;;;21.06;44.03;101742.03;5079760;27;45350;-54
2021/09/28 08:17:08;;;;;;;;;6.25;4.00;;;;;21.05;44.28;101742.94;5079349;27;46266;-56
2021/09/28 08:19:38;;;;;;;;;5.50;4.50;;;;;21.05;43.91;101742.94;5079257;27;45496;-56
2021/09/28 08:22:04;;;;;;;;;4.00;4.00;;;;;21.08;44.08;101750.72;5079394;27;45289;-56
2021/09/28 08:24:34;;;;;;;;;6.00;4.50;;;;;21.08;44.61;101758.63;5079532;27;45587;-56
2021/09/28 08:29:43;;;;;;;;;10.00;6.00;;;;;21.10;44.25;101762.06;5092623;27;45939;-57
2021/09/28 08:32:09;;;;;;;;;7.00;4.50;;;;;21.10;44.35;101755.00;5079101;27;45386;-55
2021/09/28 08:34:34;;;;;;;;;4.00;4.00;;;;;21.09;44.31;101755.94;5079492;27;45550;-56
2021/09/28 08:37:00;;;;;;;;;5.00;4.00;;;;;21.09;43.83;101757.72;5079224;27;45421;-57
2021/09/28 08:39:26;;;;;;;;;4.50;4.50;;;;;21.09;43.75;101755.09;5079363;27;45367;-56
2021/09/28 08:41:51;;;;;;;;;3.00;3.00;;;;;21.10;44.18;101748.91;5079237;27;45276;-55
2021/09/28 08:44:17;;;;;;;;;5.75;4.00;;;;;21.10;43.97;101752.38;5079180;28;45407;-54
2021/09/28 08:46:47;;;;;;;;;4.00;4.00;;;;;21.11;44.41;101750.59;5094591;27;48415;-56
2021/09/28 08:49:14;;;;;;;;;4.50;4.50;;;;;21.11;44.04;101755.88;5078841;27;45801;-56
2021/09/28 08:51:40;;;;;;;;;5.25;3.75;;;;;21.13;43.89;101759.28;5078904;27;45364;-56
2021/09/28 08:54:06;;;;;;;;;3.75;3.75;;;;;21.13;43.82;101756.66;5079018;27;45428;-56
2021/09/28 08:56:31;;;;;;;;;6.50;4.00;;;;;21.13;44.30;101757.53;5078705;28;46503;-55
2021/09/28 08:59:03;;;;;;;;;5.00;4.00;;;;;21.13;44.08;101752.25;5079008;27;45393;-57
2021/09/28 09:01:30;;;;;;;;;3.00;1.75;;;;;21.13;44.20;101751.38;5078732;27;45476;-56
2021/09/28 09:04:11;;;;;;;;;5.75;3.00;;;;;21.13;44.30;101756.66;5078379;28;45381;-56
2021/09/28 09:06:38;;;;;;;;;5.25;4.00;;;;;21.12;43.98;101757.56;5078457;27;46153;-55
2021/09/28 09:09:03;;;;;;;;;4.00;3.75;;;;;21.12;43.74;101755.81;5078463;27;45459;-56
2021/09/28 09:11:36;;;;;;;;;2.25;2.25;;;;;21.13;44.17;101746.97;5078855;27;45460;-56
2021/09/28 09:14:16;;;;;;;;;3.00;3.00;;;;;21.15;44.18;101755.69;5079081;27;45257;-57
2021/09/28 09:16:42;;;;;;;;;5.00;4.00;;;;;21.18;43.84;101757.31;5078368;27;45472;-57
2021/09/28 09:19:22;;;;;;;;;5.75;4.00;;;;;21.19;44.20;101744.97;5078411;27;45772;-56
2021/09/28 09:21:50;;;;;;;;;4.25;3.25;;;;;21.19;43.99;101751.13;5078498;27;45168;-56
2021/09/28 09:24:49;;;;;;;;;6.00;4.00;;;;;21.20;44.14;101742.28;5078554;27;45377;-56
2021/09/28 09:27:33;;;;;;;;;5.50;4.00;;;;;21.20;44.46;101737.03;5077982;28;47022;-56
2021/09/28 09:30:15;;;;;;;;;5.00;5.00;;;;;21.21;43.99;101743.13;5078512;27;45287;-56
2021/09/28 09:32:50;;;;;;;;;3.25;3.25;;;;;21.21;44.21;101732.59;5076949;28;45433;-54
2021/09/28 09:35:31;;;;;;;;;5.75;4.50;;;;;21.23;43.80;101738.66;5078433;27;45380;-55
2021/09/28 09:38:07;;;;;;;;;3.75;3.50;;;;;21.21;44.15;101725.56;5077967;27;46207;-55
2021/09/28 09:40:40;;;;;;;;;4.50;4.25;;;;;21.22;44.21;101729.88;5078358;27;45232;-56
2021/09/28 09:43:07;;;;;;;;;5.50;4.00;;;;;21.23;43.95;101726.31;5093818;27;45229;-56
2021/09/28 09:45:33;;;;;;;;;4.75;4.00;;;;;21.22;43.86;101723.75;5078545;27;45485;-54
2021/09/28 09:47:59;;;;;;;;;7.75;4.25;;;;;21.24;44.17;101722.75;5078108;27;45739;-56
2021/09/28 09:50:26;;;;;;;;;6.00;4.50;;;;;21.25;43.86;101721.84;5077892;27;45510;-55
2021/09/28 09:52:57;;;;;;;;;3.00;3.00;;;;;21.26;44.16;101714.81;5078060;27;45350;-56
2021/09/28 09:55:28;;;;;;;;;5.50;5.00;;;;;21.26;44.06;101707.72;5078027;27;45569;-57
2021/09/28 09:57:54;;;;;;;;;3.75;3.75;;;;;21.28;44.37;101705.88;5077603;27;46264;-56
2021/09/28 10:00:23;;;;;;;;;3.75;2.75;;;;;21.30;44.08;101695.25;5077667;27;45316;-53
2021/09/28 10:02:49;;;;;;;;;4.50;4.00;;;;;21.29;44.28;101699.69;5077849;27;45350;-53
2021/09/28 10:05:15;;;;;;;;;5.50;3.25;;;;;21.28;44.04;101695.34;5078140;27;45814;-54
2021/09/28 10:07:41;;;;;;;;;4.00;3.25;;;;;21.29;44.34;101697.06;5076205;28;46183;-56
2021/09/28 10:10:10;;;;;;;;;3.00;2.25;;;;;21.30;44.03;101700.53;5077479;28;45363;-54
2021/09/28 10:12:36;;;;;;;;;3.50;2.50;;;;;21.30;44.22;101696.13;5076464;28;45254;-53
2021/09/28 10:15:11;;;;;;;;;5.25;4.25;;;;;21.31;44.26;101692.56;5078117;28;45646;-55
2021/09/28 10:17:40;;;;;;;;;4.25;4.25;;;;;21.34;44.46;101685.44;5076536;28;46422;-57
2021/09/28 10:20:21;;;;;;;;;6.50;4.50;;;;;21.34;43.71;101688.06;5077472;27;45378;-56
2021/09/28 10:22:55;;;;;;;;;5.00;4.00;;;;;21.33;43.85;101691.66;5077505;27;45251;-56
2021/09/28 10:25:23;;;;;;;;;3.25;3.25;;;;;21.35;43.57;101688.00;5077795;27;45297;-56
2021/09/28 10:27:52;;;;;;;;;3.25;3.25;;;;;21.36;43.87;101694.13;5077200;27;45424;-54
2021/09/28 10:30:36;;;;;;;;;3.25;2.25;;;;;21.36;43.86;101692.38;5077247;27;45260;-55
2021/09/28 10:33:06;;;;;;;;;3.50;2.00;;;;;21.38;43.83;101702.84;5077581;27;45409;-55
2021/09/28 10:35:34;;;;;;;;;4.50;4.00;;;;;21.39;44.18;101694.00;5077968;27;45288;-56
2021/09/28 10:38:04;;;;;;;;;3.00;3.00;;;;;21.39;43.84;101688.72;5077060;27;46404;-54
2021/09/28 10:40:32;;;;;;;;;3.75;3.75;;;;;21.41;43.80;101692.16;5077110;27;45659;-56
2021/09/28 10:43:23;;;;;;;;;4.25;3.00;;;;;21.41;43.70;101692.16;5077294;27;45357;-55
2021/09/28 10:45:49;;;;;;;;;3.00;3.00;;;;;21.41;43.73;101689.53;5077409;27;45366;-58
2021/09/28 10:48:23;;;;;;;;;5.25;3.00;;;;;21.42;43.57;101688.59;5076958;27;45176;-56
2021/09/28 10:51:11;;;;;;;;;3.00;2.75;;;;;21.41;43.93;101687.72;5077231;27;45731;-56
2021/09/28 10:53:42;;;;;;;;;3.00;3.00;;;;;21.42;43.94;101686.81;5077552;28;45276;-55
2021/09/28 10:56:11;;;;;;;;;3.50;2.00;;;;;21.44;43.87;101692.03;5077293;27;45353;-56
2021/09/28 10:59:03;;;;;;;;;2.00;2.00;;;;;21.44;43.66;101687.59;5077169;27;46092;-57
2021/09/28 11:01:30;;;;;;;;;2.75;2.75;;;;;21.44;43.83;101684.13;5076782;28;45362;-57
2021/09/28 11:03:57;;;;;;;;;2.25;2.25;;;;;21.45;44.00;101683.16;5076931;27;45197;-54
2021/09/28 11:06:44;;;;;;;;;3.50;3.00;;;;;21.45;44.09;101675.25;5077047;28;45568;-59
2021/09/28 11:09:11;;;;;;;;;2.25;2.25;;;;;21.45;43.91;101673.47;5076732;28;46682;-55
2021/09/28 11:11:36;;;;;;;;;3.00;2.25;;;;;21.47;44.17;101669.00;5076967;27;45342;-57
2021/09/28 11:14:04;;;;;;;;;3.75;3.75;;;;;21.46;43.91;101664.66;5076724;27;45328;-57
2021/09/28 11:16:56;;;;;;;;;2.75;2.00;;;;;21.49;43.81;101657.53;5075486;28;45295;-56
2021/09/28 11:19:31;;;;;;;;;2.75;2.00;;;;;21.50;43.77;101667.16;5076403;27;47390;-56
2021/09/28 11:21:56;;;;;;;;;2.00;2.00;;;;;21.51;43.84;101664.44;5076713;28;45333;-55
2021/09/28 11:24:27;;;;;;;;;2.50;2.25;;;;;21.51;43.71;101661.78;5076724;27;45325;-57
2021/09/28 11:27:10;;;;;;;;;3.25;2.00;;;;;21.52;43.88;101652.09;5076825;27;45169;-56